Time;durP1;ratioP1;P1;durP2;ratioP2;P2;SDS_P1;SDS_P2;PMS_P1;PMS_P2;Temp;Humidity;BMP_temperature;BMP_pressure;BME280_temperature;BME280_humidity;BME280_pressure;Samples;Min_cycle;Max_cycle;Signal;HPM_P1;HPM_P2
2023/08/22 00:02:22;;;;;;;9.82;5.00;;;;;;;18.02;100.00;101966.59;5027942;28;20032;-77
2023/08/22 00:04:47;;;;;;;5.88;4.70;;;;;;;18.07;100.00;101969.69;5028898;28;20026;-77
2023/08/22 00:07:13;;;;;;;7.47;4.82;;;;;;;18.06;100.00;101970.66;5029519;28;20030;-77
2023/08/22 00:09:39;;;;;;;7.90;5.10;;;;;;;18.08;100.00;101976.69;5028420;28;20022;-77
2023/08/22 00:12:05;;;;;;;7.35;5.22;;;;;;;18.05;100.00;101974.31;5029952;28;20462;-77
2023/08/22 00:14:31;;;;;;;8.23;4.85;;;;;;;18.07;100.00;101977.69;5029091;28;20029;-77
2023/08/22 00:16:56;;;;;;;5.40;4.20;;;;;;;18.04;100.00;101972.63;5028612;28;20413;-77
2023/08/22 00:19:22;;;;;;;8.18;4.50;;;;;;;18.04;100.00;101971.78;5029547;28;20041;-77
2023/08/22 00:21:47;;;;;;;7.95;5.50;;;;;;;18.04;100.00;101975.28;5029184;28;20080;-77
2023/08/22 00:24:13;;;;;;;6.65;4.50;;;;;;;17.99;100.00;101966.81;5029550;28;20541;-77
2023/08/22 00:26:38;;;;;;;7.00;4.68;;;;;;;17.97;100.00;101966.13;5034227;28;20022;-77
2023/08/22 00:29:03;;;;;;;8.75;5.40;;;;;;;17.98;100.00;101969.63;5043460;28;20025;-77
2023/08/22 00:31:29;;;;;;;9.95;5.65;;;;;;;17.94;100.00;101976.19;5053419;28;20128;-78
2023/08/22 00:33:54;;;;;;;6.68;5.13;;;;;;;17.92;100.00;101976.34;5052775;28;20028;-78
2023/08/22 00:36:20;;;;;;;7.43;5.18;;;;;;;17.91;100.00;101984.47;5050499;28;20171;-77
2023/08/22 00:38:45;;;;;;;7.60;5.40;;;;;;;17.89;100.00;101970.44;5052503;28;20036;-77
2023/08/22 00:41:10;;;;;;;8.68;5.18;;;;;;;17.87;100.00;101962.59;5052319;28;20100;-77
2023/08/22 00:43:36;;;;;;;9.80;5.80;;;;;;;17.82;100.00;101964.81;5052250;28;20031;-77
2023/08/22 00:46:02;;;;;;;7.60;5.40;;;;;;;17.87;100.00;101965.25;5052034;28;20123;-78
2023/08/22 00:48:27;;;;;;;8.18;5.55;;;;;;;17.81;100.00;101969.28;5051063;28;20820;-78
2023/08/22 00:50:53;;;;;;;10.23;5.15;;;;;;;17.83;100.00;101969.16;5051739;28;20029;-77
2023/08/22 00:53:18;;;;;;;7.72;5.18;;;;;;;17.81;100.00;101963.97;5050828;28;20029;-77
2023/08/22 00:55:44;;;;;;;6.53;5.13;;;;;;;17.81;100.00;101952.47;5032966;28;20466;-78
2023/08/22 00:58:10;;;;;;;5.68;4.55;;;;;;;17.77;100.00;101949.22;5031615;28;20033;-78
2023/08/22 01:00:36;;;;;;;6.60;4.78;;;;;;;17.77;100.00;101951.06;5032826;28;20021;-78
2023/08/22 01:03:03;;;;;;;6.93;5.22;;;;;;;17.71;100.00;101954.25;5032078;28;20029;-78
2023/08/22 01:05:32;;;;;;;7.80;5.10;;;;;;;17.74;100.00;101948.66;5030166;28;20401;-78
2023/08/22 01:08:18;;;;;;;9.05;5.45;;;;;;;17.70;100.00;101947.25;5031939;28;20040;-77
2023/08/22 01:10:50;;;;;;;7.00;5.18;;;;;;;17.67;100.00;101947.50;5031978;28;20034;-77
2023/08/22 01:13:27;;;;;;;8.38;5.00;;;;;;;17.66;100.00;101948.44;5031436;28;20022;-78
2023/08/22 01:15:54;;;;;;;6.10;4.80;;;;;;;17.58;100.00;101957.06;5032936;28;20083;-78
2023/08/22 01:18:21;;;;;;;8.98;5.15;;;;;;;17.61;100.00;101953.28;5030761;28;20026;-78
2023/08/22 01:20:46;;;;;;;6.63;5.22;;;;;;;17.58;100.00;101961.53;5031484;28;20474;-78
2023/08/22 01:23:12;;;;;;;7.70;5.25;;;;;;;17.56;100.00;101959.03;5032365;28;20075;-78
2023/08/22 01:25:37;;;;;;;11.90;5.82;;;;;;;17.53;100.00;101953.97;5032687;28;20033;-78
2023/08/22 01:28:21;;;;;;;7.00;5.38;;;;;;;17.57;100.00;101960.72;5035611;28;20078;-77
2023/08/22 01:30:49;;;;;;;8.30;5.60;;;;;;;17.47;100.00;101950.00;5052715;28;20025;-77
2023/08/22 01:33:25;;;;;;;9.25;5.20;;;;;;;17.47;100.00;101944.69;5051761;28;20024;-78
2023/08/22 01:35:54;;;;;;;7.97;5.78;;;;;;;17.45;100.00;101941.31;5051556;28;20054;-78
2023/08/22 01:38:21;;;;;;;8.30;5.47;;;;;;;17.45;100.00;101941.31;5050499;28;20036;-78
2023/08/22 01:40:47;;;;;;;6.25;5.28;;;;;;;17.48;100.00;101946.38;5049629;28;20028;-78
2023/08/22 01:43:13;;;;;;;5.82;4.97;;;;;;;17.46;100.00;101939.50;5050798;28;20116;-77
2023/08/22 01:45:39;;;;;;;6.72;5.22;;;;;;;17.45;100.00;101935.16;5051428;28;20389;-78
2023/08/22 01:48:05;;;;;;;6.82;5.05;;;;;;;17.45;100.00;101945.78;5050597;28;20060;-78
2023/08/22 01:50:30;;;;;;;7.20;5.18;;;;;;;17.45;100.00;101943.97;5049807;28;20473;-78
2023/08/22 01:52:57;;;;;;;7.18;4.90;;;;;;;17.46;100.00;101937.69;5050510;28;20096;-78
2023/08/22 01:55:23;;;;;;;5.20;4.32;;;;;;;17.47;100.00;101934.03;5034589;28;20036;-77
2023/08/22 01:57:48;;;;;;;7.07;4.80;;;;;;;17.48;100.00;101941.06;5029948;28;20386;-78
2023/08/22 02:00:14;;;;;;;7.25;4.88;;;;;;;17.46;100.00;101936.84;5030225;28;20043;-77
2023/08/22 02:02:39;;;;;;;11.23;5.30;;;;;;;17.48;100.00;101938.38;5031219;28;20433;-78
2023/08/22 02:05:05;;;;;;;9.13;5.18;;;;;;;17.48;100.00;101941.06;5029900;28;20029;-78
2023/08/22 02:07:33;;;;;;;9.75;5.32;;;;;;;17.46;100.00;101936.84;5029005;28;20041;-78
2023/08/22 02:09:59;;;;;;;6.53;4.97;;;;;;;17.49;100.00;101942.75;5030828;28;20033;-78
2023/08/22 02:12:24;;;;;;;9.75;5.10;;;;;;;17.48;100.00;101935.72;5030777;28;20060;-78
2023/08/22 02:14:51;;;;;;;5.38;4.55;;;;;;;17.48;100.00;101919.75;5028820;28;20417;-77
2023/08/22 02:17:16;;;;;;;6.28;4.50;;;;;;;17.50;100.00;101928.47;5030589;28;20036;-78
2023/08/22 02:19:42;;;;;;;8.40;5.03;;;;;;;17.49;100.00;101921.44;5031995;28;20029;-79
2023/08/22 02:22:10;;;;;;;7.40;5.30;;;;;;;17.42;100.00;101925.63;5031265;28;20029;-78
2023/08/22 02:24:36;;;;;;;9.48;5.40;;;;;;;17.48;100.00;101921.59;5032081;28;20036;-79
2023/08/22 02:27:03;;;;;;;10.15;5.20;;;;;;;17.45;100.00;101914.72;5031556;28;20037;-78
2023/08/22 02:29:29;;;;;;;8.55;5.00;;;;;;;17.48;100.00;101916.25;5045724;28;20103;-79
2023/08/22 02:31:55;;;;;;;6.68;4.82;;;;;;;17.47;100.00;101910.09;5051832;28;20065;-79
2023/08/22 02:34:21;;;;;;;7.47;5.45;;;;;;;17.44;100.00;101912.19;5050322;28;20064;-79
2023/08/22 02:36:46;;;;;;;6.68;4.80;;;;;;;17.40;100.00;101911.59;5033174;28;20544;-79
2023/08/22 02:39:12;;;;;;;6.68;5.03;;;;;;;17.40;100.00;101906.28;5020659;28;20046;-79
2023/08/22 02:41:37;;;;;;;9.13;6.07;;;;;;;17.36;100.00;101910.19;5030665;28;20021;-79
2023/08/22 02:44:03;;;;;;;7.68;5.63;;;;;;;17.42;100.00;101907.00;5029065;28;20025;-79
2023/08/22 02:46:29;;;;;;;8.32;5.65;;;;;;;17.35;100.00;101913.81;5029950;28;20386;-79
2023/08/22 02:48:54;;;;;;;9.38;5.35;;;;;;;17.35;100.00;101910.31;5028692;28;20105;-79
2023/08/22 02:51:20;;;;;;;9.32;5.57;;;;;;;17.30;100.00;101910.72;5029546;28;20112;-79
2023/08/22 02:53:45;;;;;;;7.82;5.15;;;;;;;17.34;100.00;101919.28;5033006;28;20028;-79
2023/08/22 02:56:11;;;;;;;8.90;5.38;;;;;;;17.29;100.00;101917.00;5049524;28;20103;-79
2023/08/22 02:58:36;;;;;;;7.88;5.57;;;;;;;17.27;100.00;101924.28;5049124;28;20380;-78
2023/08/22 03:01:04;;;;;;;7.35;5.38;;;;;;;17.27;100.00;101916.31;5048617;28;20073;-78
2023/08/22 03:03:31;;;;;;;10.25;6.10;;;;;;;17.24;100.00;101916.56;5049247;28;20021;-78
2023/08/22 03:06:00;;;;;;;9.35;6.30;;;;;;;17.23;100.00;101920.19;5049799;28;20021;-79
2023/08/22 03:08:26;;;;;;;7.53;5.90;;;;;;;17.21;100.00;101923.00;5049719;28;20090;-79
2023/08/22 03:10:52;;;;;;;8.50;6.18;;;;;;;17.18;100.00;101927.69;5049259;28;20025;-78
2023/08/22 03:13:18;;;;;;;10.10;6.05;;;;;;;17.14;100.00;101921.78;5049488;28;20036;-79
2023/08/22 03:15:44;;;;;;;8.90;6.15;;;;;;;17.11;100.00;101923.88;5049890;28;20043;-78
2023/08/22 03:18:09;;;;;;;8.13;6.57;;;;;;;17.12;100.00;101922.91;5048978;28;20025;-79
2023/08/22 03:20:35;;;;;;;7.93;6.47;;;;;;;17.09;100.00;101923.16;5049992;28;20025;-79
2023/08/22 03:23:00;;;;;;;9.13;6.05;;;;;;;17.03;100.00;101924.53;5049407;28;20305;-79
2023/08/22 03:25:26;;;;;;;9.73;6.63;;;;;;;17.04;100.00;101914.72;5048604;28;20024;-79
2023/08/22 03:27:51;;;;;;;8.13;6.78;;;;;;;17.01;100.00;101912.31;5046848;28;20025;-78
2023/08/22 03:30:17;;;;;;;9.90;6.68;;;;;;;17.01;100.00;101912.31;5027879;28;20044;-78
2023/08/22 03:32:42;;;;;;;8.38;6.10;;;;;;;16.99;100.00;101916.94;5028893;28;20432;-78
2023/08/22 03:35:08;;;;;;;7.88;6.45;;;;;;;16.96;100.00;101923.34;5028061;28;20592;-78
2023/08/22 03:37:33;;;;;;;13.73;6.90;;;;;;;16.91;100.00;101921.09;5029713;28;20489;-79
2023/08/22 03:39:59;;;;;;;9.43;6.82;;;;;;;16.88;100.00;101915.19;5027695;28;20112;-79
2023/08/22 03:42:24;;;;;;;9.15;6.20;;;;;;;16.89;100.00;101917.72;5030157;28;20493;-79
2023/08/22 03:44:50;;;;;;;10.20;7.07;;;;;;;16.85;100.00;101910.13;5029033;28;20124;-79
2023/08/22 03:47:16;;;;;;;9.45;6.85;;;;;;;16.80;100.00;101913.13;5029308;28;20099;-79
2023/08/22 03:49:41;;;;;;;9.88;6.75;;;;;;;16.80;100.00;101915.78;5030632;28;20029;-78
2023/08/22 03:52:10;;;;;;;8.45;6.85;;;;;;;16.76;100.00;101917.03;5029445;28;20021;-78
2023/08/22 03:54:35;;;;;;;9.90;6.88;;;;;;;16.72;100.00;101912.94;5038182;28;20021;-79
2023/08/22 03:57:01;;;;;;;9.27;6.15;;;;;;;16.71;100.00;101911.25;5050164;28;20272;-79
2023/08/22 03:59:26;;;;;;;7.68;5.85;;;;;;;16.66;100.00;101908.13;5048708;28;20363;-79
2023/08/22 04:01:52;;;;;;;9.35;6.43;;;;;;;16.62;100.00;101909.31;5049079;28;20027;-79
2023/08/22 04:04:17;;;;;;;10.80;6.60;;;;;;;16.62;100.00;101911.97;5048542;28;20375;-79
2023/08/22 04:06:42;;;;;;;8.30;6.30;;;;;;;16.60;100.00;101911.28;5048566;28;20071;-79
2023/08/22 04:09:09;;;;;;;8.30;6.13;;;;;;;16.56;100.00;101907.19;5048857;28;20032;-79
2023/08/22 04:11:34;;;;;;;7.30;6.07;;;;;;;16.50;100.00;101913.00;5049047;28;20021;-78
2023/08/22 04:14:00;;;;;;;6.55;5.95;;;;;;;16.47;100.00;101905.28;5048114;28;20104;-79
2023/08/22 04:16:25;;;;;;;7.13;6.10;;;;;;;16.44;100.00;101909.03;5048312;28;20044;-78
2023/08/22 04:18:50;;;;;;;11.57;6.40;;;;;;;16.43;100.00;101903.84;5048695;28;20107;-78
2023/08/22 04:21:16;;;;;;;8.40;6.63;;;;;;;16.42;100.00;101907.47;5047937;28;20481;-78
2023/08/22 04:23:44;;;;;;;10.20;6.65;;;;;;;16.38;100.00;101906.84;5048876;28;20098;-78
2023/08/22 04:26:10;;;;;;;11.85;7.72;;;;;;;16.35;100.00;101907.09;5047235;28;20521;-78
2023/08/22 04:28:36;;;;;;;10.32;7.32;;;;;;;16.39;100.00;101902.38;5041157;28;20021;-79
2023/08/22 04:31:02;;;;;;;12.98;7.72;;;;;;;16.34;100.00;101897.44;5028766;28;20041;-78
2023/08/22 04:33:27;;;;;;;11.02;8.07;;;;;;;16.39;100.00;101900.56;5027256;28;20033;-78
2023/08/22 04:35:53;;;;;;;9.48;8.48;;;;;;;16.32;100.00;101893.22;5027917;28;20021;-79
2023/08/22 04:38:18;;;;;;;11.55;8.00;;;;;;;16.30;100.00;101894.22;5028448;28;20108;-79
2023/08/22 04:40:43;;;;;;;8.90;7.78;;;;;;;16.27;100.00;101894.47;5029388;28;20075;-79
2023/08/22 04:43:09;;;;;;;9.80;8.13;;;;;;;16.25;100.00;101896.41;5027823;28;20093;-78
2023/08/22 04:45:35;;;;;;;10.30;8.20;;;;;;;16.23;100.00;101903.66;5029779;28;20172;-78
2023/08/22 04:48:01;;;;;;;10.60;8.35;;;;;;;16.23;100.00;101895.69;5028135;28;20147;-78
2023/08/22 04:50:29;;;;;;;13.02;8.60;;;;;;;16.23;100.00;101898.34;5027835;28;20112;-78
2023/08/22 04:52:54;;;;;;;10.55;8.63;;;;;;;16.21;100.00;101907.41;5029676;28;20029;-78
2023/08/22 04:55:20;;;;;;;10.65;9.48;;;;;;;16.18;100.00;101905.84;5044972;28;20484;-79
2023/08/22 04:57:46;;;;;;;13.57;8.50;;;;;;;16.16;100.00;101901.63;5047719;28;20057;-79
2023/08/22 05:00:13;;;;;;;10.57;8.63;;;;;;;16.17;100.00;101901.50;5048437;28;20028;-79
2023/08/22 05:02:39;;;;;;;11.35;8.65;;;;;;;16.17;100.00;101911.28;5049898;28;20517;-79
2023/08/22 05:05:06;;;;;;;11.57;8.73;;;;;;;16.15;100.00;101905.25;5049079;28;20033;-78
2023/08/22 05:07:32;;;;;;;13.07;9.68;;;;;;;16.13;100.00;101913.31;5049148;28;20024;-78
2023/08/22 05:09:57;;;;;;;12.10;9.15;;;;;;;16.15;100.00;101913.19;5046756;28;20115;-79
2023/08/22 05:12:23;;;;;;;12.27;9.25;;;;;;;16.11;100.00;101902.00;5051572;28;20021;-79
2023/08/22 05:14:48;;;;;;;9.57;8.50;;;;;;;16.17;100.00;101906.81;5052157;28;20051;-78
2023/08/22 05:17:14;;;;;;;12.40;9.43;;;;;;;16.15;100.00;101911.41;5050106;28;20025;-78
2023/08/22 05:19:40;;;;;;;11.27;9.32;;;;;;;16.18;100.00;101905.00;5052336;28;20025;-79
2023/08/22 05:22:05;;;;;;;12.13;9.82;;;;;;;16.19;100.00;101906.69;5052235;28;20031;-79
2023/08/22 05:24:31;;;;;;;11.02;9.88;;;;;;;16.22;100.00;101909.94;5050012;28;20033;-77
2023/08/22 05:26:56;;;;;;;12.38;9.80;;;;;;;16.28;100.00;101900.63;5052526;28;20051;-78
2023/08/22 05:29:22;;;;;;;13.45;10.40;;;;;;;16.30;100.00;101904.81;5038142;28;20018;-78
2023/08/22 05:31:48;;;;;;;15.02;10.77;;;;;;;16.34;100.00;101908.06;5031415;28;20036;-78
2023/08/22 05:34:13;;;;;;;16.10;10.43;;;;;;;16.45;100.00;101902.75;5032127;28;20021;-78
2023/08/22 05:36:39;;;;;;;16.42;11.15;;;;;;;16.61;100.00;101904.97;5032002;28;20420;-78
2023/08/22 05:39:06;;;;;;;12.43;10.48;;;;;;;16.70;100.00;101906.91;5031491;28;20510;-78
2023/08/22 05:41:31;;;;;;;13.50;11.07;;;;;;;16.78;100.00;101901.78;5031858;28;21005;-78
2023/08/22 05:43:56;;;;;;;14.20;10.88;;;;;;;16.86;100.00;101899.38;5030985;28;20416;-78
2023/08/22 05:46:22;;;;;;;14.18;10.32;;;;;;;16.90;100.00;101898.13;5031860;28;20197;-78
2023/08/22 05:48:47;;;;;;;15.20;10.80;;;;;;;16.93;100.00;101899.69;5032948;28;20048;-78
2023/08/22 05:51:13;;;;;;;12.00;10.15;;;;;;;16.96;100.00;101902.09;5031396;28;20025;-78
2023/08/22 05:53:38;;;;;;;14.63;10.48;;;;;;;17.00;100.00;101913.31;5034356;28;20021;-78
2023/08/22 05:56:04;;;;;;;13.63;10.63;;;;;;;17.05;100.00;101919.06;5052732;28;20516;-78
2023/08/22 05:58:29;;;;;;;13.68;10.20;;;;;;;17.09;100.00;101908.03;5051045;28;20086;-78
2023/08/22 06:00:55;;;;;;;14.20;9.98;;;;;;;17.11;100.00;101916.72;5051775;28;20064;-78
2023/08/22 06:03:20;;;;;;;14.45;10.38;;;;;;;17.14;100.00;101919.13;5050806;28;20021;-78
2023/08/22 06:05:46;;;;;;;12.13;9.95;;;;;;;17.16;100.00;101922.50;5052203;28;20021;-79
2023/08/22 06:08:11;;;;;;;15.63;10.50;;;;;;;17.17;100.00;101931.31;5051801;28;20025;-79
2023/08/22 06:10:37;;;;;;;11.38;10.18;;;;;;;17.19;100.00;101924.06;5051073;28;20029;-79
2023/08/22 06:13:03;;;;;;;14.82;10.38;;;;;;;17.25;100.00;101928.03;5051109;28;20523;-78
2023/08/22 06:15:28;;;;;;;14.38;10.73;;;;;;;17.27;100.00;101926.09;5051643;28;20104;-79
2023/08/22 06:17:54;;;;;;;15.70;11.23;;;;;;;17.33;100.00;101926.41;5049838;28;20424;-79
2023/08/22 06:20:19;;;;;;;14.52;10.40;;;;;;;17.41;100.00;101923.94;5050330;28;20025;-79
2023/08/22 06:22:45;;;;;;;12.32;10.20;;;;;;;17.45;100.00;101917.38;5050466;28;20064;-79
2023/08/22 06:25:10;;;;;;;14.82;10.48;;;;;;;17.49;100.00;101921.44;5049956;28;20033;-79
2023/08/22 06:27:36;;;;;;;13.88;10.40;;;;;;;17.55;100.00;101925.41;5049457;28;20025;-79
2023/08/22 06:30:02;;;;;;;17.73;11.07;;;;;;;17.66;100.00;101919.16;5031764;28;20043;-79
2023/08/22 06:32:27;;;;;;;10.48;9.38;;;;;;;17.71;100.00;101917.81;5030688;28;20032;-79
2023/08/22 06:34:53;;;;;;;17.73;9.77;;;;;;;17.74;100.00;101922.03;5030209;28;20017;-79
2023/08/22 06:37:19;;;;;;;12.48;9.07;;;;;;;17.87;100.00;101925.31;5029147;28;20104;-78
2023/08/22 06:39:44;;;;;;;15.57;9.43;;;;;;;17.92;100.00;101933.72;5030600;28;20049;-78
2023/08/22 06:42:09;;;;;;;11.75;8.82;;;;;;;17.99;100.00;101928.69;5030034;28;20029;-78
2023/08/22 06:44:35;;;;;;;12.07;8.27;;;;;;;18.07;100.00;101927.06;5030925;28;20076;-79
2023/08/22 06:47:02;;;;;;;12.70;8.00;;;;;;;18.14;100.00;101930.88;5030099;28;20060;-78
2023/08/22 06:49:27;;;;;;;12.73;7.68;;;;;;;18.20;100.00;101941.97;5029612;28;20292;-78
2023/08/22 06:51:53;;;;;;;10.73;7.30;;;;;;;18.34;100.00;101939.75;5030591;28;20029;-79
2023/08/22 06:54:18;;;;;;;11.50;8.00;;;;;;;18.44;100.00;101943.28;5038108;28;20048;-79
2023/08/22 06:56:44;;;;;;;12.55;8.32;;;;;;;18.55;100.00;101950.31;5050464;28;20392;-79
2023/08/22 06:59:09;;;;;;;9.13;7.40;;;;;;;18.68;100.00;101952.72;5049870;28;20480;-78
2023/08/22 07:01:35;;;;;;;13.65;7.47;;;;;;;18.79;100.00;101953.44;5050125;28;20025;-79
2023/08/22 07:04:00;;;;;;;10.48;7.43;;;;;;;18.99;98.46;101956.97;5050213;28;20025;-79
2023/08/22 07:06:25;;;;;;;10.93;7.43;;;;;;;19.20;97.69;101953.28;5050523;28;20029;-78
2023/08/22 07:08:51;;;;;;;10.38;6.30;;;;;;;19.44;92.44;101963.50;5050794;28;20051;-78
2023/08/22 07:11:16;;;;;;;13.02;7.05;;;;;;;19.70;91.67;101956.59;5049917;28;20020;-78
2023/08/22 07:13:42;;;;;;;8.93;6.45;;;;;;;19.93;89.73;101957.06;5050642;28;20032;-78
2023/08/22 07:16:10;;;;;;;7.70;4.72;;;;;;;20.19;87.58;101962.56;5051125;28;20037;-77
2023/08/22 07:18:36;;;;;;;6.57;4.15;;;;;;;20.36;80.85;101964.41;5050302;28;20139;-77
2023/08/22 07:21:06;;;;;;;6.97;3.78;;;;;;;20.56;80.98;101966.03;5049443;28;20119;-77
2023/08/22 07:23:31;;;;;;;6.00;3.72;;;;;;;20.80;79.02;101964.56;5049694;28;20618;-77
2023/08/22 07:25:57;;;;;;;6.55;3.88;;;;;;;20.94;79.65;101962.22;5049872;28;20040;-77
2023/08/22 07:28:22;;;;;;;9.32;4.50;;;;;;;21.22;78.87;101962.13;5043650;28;20013;-77
2023/08/22 07:30:48;;;;;;;7.85;4.30;;;;;;;21.50;78.70;101965.50;5027860;28;20465;-77
2023/08/22 07:33:14;;;;;;;10.75;5.28;;;;;;;21.67;78.11;101959.28;5029366;28;20160;-77
2023/08/22 07:35:40;;;;;;;6.90;5.13;;;;;;;22.08;76.00;101954.16;5029786;28;20025;-77
2023/08/22 07:38:05;;;;;;;6.97;5.75;;;;;;;22.26;73.30;101946.00;5028726;28;20366;-77
2023/08/22 07:40:32;;;;;;;11.15;5.93;;;;;;;22.46;72.55;101952.75;5029358;28;20021;-77
2023/08/22 07:42:59;;;;;;;9.27;5.97;;;;;;;22.67;73.75;101947.75;5029315;28;20379;-77
2023/08/22 07:45:24;;;;;;;9.27;5.97;;;;;;;22.85;69.65;101952.19;5028545;28;20028;-78
2023/08/22 07:47:49;;;;;;;10.02;6.00;;;;;;;22.82;70.04;101948.00;5029034;28;20049;-78
2023/08/22 07:50:15;;;;;;;11.27;6.85;;;;;;;22.90;69.48;101949.84;5029375;28;20033;-78
2023/08/22 07:52:40;;;;;;;11.63;6.65;;;;;;;22.93;69.57;101950.34;5028924;28;20018;-78
2023/08/22 07:55:06;;;;;;;9.75;6.95;;;;;;;22.95;70.76;101950.16;5043079;28;20158;-79
2023/08/22 07:57:31;;;;;;;12.20;7.43;;;;;;;22.97;69.39;101951.69;5048905;28;20025;-79
2023/08/22 07:59:57;;;;;;;12.93;7.35;;;;;;;22.89;70.32;101945.47;5047226;28;20021;-79
2023/08/22 08:02:22;;;;;;;12.82;7.25;;;;;;;22.85;70.37;101947.66;5048959;28;20098;-79
2023/08/22 08:04:47;;;;;;;11.07;6.82;;;;;;;22.80;69.42;101956.19;5049919;28;20035;-79
2023/08/22 08:07:13;;;;;;;9.23;6.15;;;;;;;22.65;68.80;101957.81;5049034;28;20032;-79
2023/08/22 08:09:38;;;;;;;11.20;7.05;;;;;;;22.76;69.15;101964.69;5050320;28;20096;-79
2023/08/22 08:12:04;;;;;;;11.57;6.40;;;;;;;22.73;69.53;101959.66;5048798;28;20017;-79
2023/08/22 08:14:29;;;;;;;14.20;5.90;;;;;;;22.76;71.57;101967.38;5049332;28;20370;-78
2023/08/22 08:16:55;;;;;;;11.52;5.75;;;;;;;22.76;69.63;101970.06;5050158;28;20025;-79
2023/08/22 08:19:20;;;;;;;10.35;5.80;;;;;;;22.70;68.56;101965.38;5049592;28;20025;-79
2023/08/22 08:21:46;;;;;;;10.23;5.75;;;;;;;22.70;70.57;101974.25;5049116;28;20016;-79
2023/08/22 08:24:11;;;;;;;8.40;5.13;;;;;;;22.60;70.09;101964.69;5049845;28;20054;-79
2023/08/22 08:26:37;;;;;;;10.88;4.90;;;;;;;22.71;71.06;101967.03;5050381;28;20114;-79
2023/08/22 08:29:03;;;;;;;9.80;5.07;;;;;;;22.79;70.82;101970.56;5037282;28;20022;-79
2023/08/22 08:31:28;;;;;;;8.43;4.95;;;;;;;22.86;71.52;101975.34;5028820;28;20028;-79
2023/08/22 08:33:53;;;;;;;11.60;5.00;;;;;;;22.93;70.27;101976.34;5028338;28;20017;-79
2023/08/22 08:36:19;;;;;;;7.18;4.75;;;;;;;22.95;73.23;101980.53;5028690;28;20113;-79
2023/08/22 08:38:44;;;;;;;13.15;5.07;;;;;;;23.02;71.65;101972.66;5028709;28;20017;-79
2023/08/22 08:41:10;;;;;;;9.43;5.05;;;;;;;23.14;71.33;101977.50;5028047;28;20052;-78
2023/08/22 08:43:35;;;;;;;10.70;5.25;;;;;;;23.28;68.56;101969.81;5029115;28;20438;-79
2023/08/22 08:46:03;;;;;;;13.65;4.80;;;;;;;23.26;69.25;101967.28;5029609;28;20321;-79
2023/08/22 08:48:30;;;;;;;10.93;4.80;;;;;;;23.46;69.29;101967.75;5030624;28;20037;-79
2023/08/22 08:51:00;;;;;;;8.40;4.38;;;;;;;23.39;68.78;101961.38;5032748;28;20030;-79
2023/08/22 08:53:26;;;;;;;5.47;3.97;;;;;;;23.34;66.90;101963.75;5032568;28;20017;-79
2023/08/22 08:55:52;;;;;;;9.57;4.57;;;;;;;23.37;67.24;101968.78;5012136;28;20529;-79
2023/08/22 08:58:17;;;;;;;7.95;4.22;;;;;;;23.40;67.30;101965.75;5012669;28;20080;-79
2023/08/22 09:00:44;;;;;;;11.82;4.53;;;;;;;23.49;67.34;101970.09;5012831;28;20072;-79
2023/08/22 09:03:10;;;;;;;7.53;4.38;;;;;;;23.59;68.94;101972.63;5011977;28;20025;-79
2023/08/22 09:05:37;;;;;;;10.52;5.32;;;;;;;23.52;68.47;101975.13;5013359;28;20037;-79
2023/08/22 09:08:15;;;;;;;12.57;5.70;;;;;;;23.66;70.55;101974.47;5011513;28;20136;-79
2023/08/22 09:10:40;;;;;;;9.55;6.03;;;;;;;23.62;68.70;101967.78;5011292;28;20022;-79
2023/08/22 09:13:06;;;;;;;17.52;7.53;;;;;;;23.66;67.17;101969.09;5012833;28;20021;-79
2023/08/22 09:15:33;;;;;;;13.95;7.72;;;;;;;23.63;67.45;101974.81;5012469;28;20101;-79
2023/08/22 09:17:58;;;;;;;11.00;7.47;;;;;;;23.67;68.61;101978.84;5012213;28;20101;-78
2023/08/22 09:20:24;;;;;;;11.45;7.85;;;;;;;23.66;68.73;101971.78;5013053;28;20121;-79
2023/08/22 09:22:49;;;;;;;15.45;7.75;;;;;;;23.79;68.45;101965.88;5013319;28;20029;-79
2023/08/22 09:25:16;;;;;;;16.95;8.90;;;;;;;23.86;66.09;101974.06;5012645;28;20037;-79
2023/08/22 09:27:42;;;;;;;15.13;8.00;;;;;;;23.93;66.16;101972.38;5013187;28;20030;-79
2023/08/22 09:30:11;;;;;;;12.80;7.43;;;;;;;23.86;68.10;101974.06;5011600;28;20113;-79
2023/08/22 09:32:37;;;;;;;12.50;7.70;;;;;;;23.79;67.96;101973.09;5013522;28;20029;-79
2023/08/22 09:35:02;;;;;;;13.45;7.88;;;;;;;23.75;68.28;101977.97;5012363;28;20068;-78
2023/08/22 09:37:37;;;;;;;13.02;7.43;;;;;;;23.98;69.62;101967.28;5012378;28;20112;-79
2023/08/22 09:40:09;;;;;;;14.73;7.15;;;;;;;24.32;67.15;101970.53;5013297;28;20018;-78
2023/08/22 09:42:38;;;;;;;14.35;7.57;;;;;;;24.46;64.37;101971.66;5012027;28;20021;-78
2023/08/22 09:45:05;;;;;;;14.07;6.82;;;;;;;25.00;65.58;101979.72;5012341;28;20018;-79
2023/08/22 09:47:31;;;;;;;12.90;6.57;;;;;;;25.11;63.17;101981.16;5011624;28;20446;-78
2023/08/22 09:49:59;;;;;;;9.93;6.20;;;;;;;25.13;61.73;101984.50;5012112;28;20022;-78
2023/08/22 09:52:25;;;;;;;10.88;5.22;;;;;;;25.13;61.38;101979.09;5011385;28;20058;-79
2023/08/22 09:54:54;;;;;;;15.00;6.10;;;;;;;25.10;59.38;101976.78;5035264;28;20444;-77
2023/08/22 09:57:21;;;;;;;12.35;5.07;;;;;;;25.19;59.69;101975.69;5050387;28;20028;-78
2023/08/22 09:59:49;;;;;;;8.02;4.63;;;;;;;25.28;59.61;101988.09;5051427;28;20428;-78
2023/08/22 10:02:17;;;;;;;6.65;3.92;;;;;;;24.76;56.63;101985.25;5051818;28;20442;-78
2023/08/22 10:04:43;;;;;;;11.63;3.60;;;;;;;24.56;57.93;101976.81;5051691;28;20028;-77
2023/08/22 10:07:09;;;;;;;8.70;3.90;;;;;;;24.51;58.31;101980.03;5051172;28;20033;-79
2023/08/22 10:09:34;;;;;;;8.40;3.78;;;;;;;24.66;58.53;101977.41;5051426;28;20102;-79
2023/08/22 10:12:05;;;;;;;7.70;3.67;;;;;;;24.82;58.57;101977.31;5051233;28;20134;-76
2023/08/22 10:14:46;;;;;;;6.47;2.92;;;;;;;24.88;59.15;101973.06;5050410;28;20021;-77
2023/08/22 10:17:13;;;;;;;8.13;3.28;;;;;;;25.10;56.60;101985.69;5051232;28;20491;-77
2023/08/22 10:19:38;;;;;;;7.40;3.00;;;;;;;25.45;57.45;101973.44;5050777;28;20043;-77
2023/08/22 10:22:10;;;;;;;5.40;2.70;;;;;;;25.75;56.49;101970.78;5049984;28;20102;-77
2023/08/22 10:24:35;;;;;;;8.25;3.25;;;;;;;25.89;56.22;101969.94;5050738;28;20504;-77
2023/08/22 10:27:04;;;;;;;8.70;3.10;;;;;;;25.85;53.98;101968.66;5051240;28;20413;-77
2023/08/22 10:29:45;;;;;;;5.47;2.80;;;;;;;25.84;55.01;101983.16;5036749;28;20164;-75
2023/08/22 10:32:10;;;;;;;6.32;3.10;;;;;;;25.54;56.84;101976.88;5031915;28;20029;-75
2023/08/22 10:34:39;;;;;;;6.22;2.63;;;;;;;25.32;54.11;101973.22;5031375;28;20013;-75
2023/08/22 10:37:15;;;;;;;4.68;2.50;;;;;;;25.43;56.98;101975.47;5032072;28;20025;-74
2023/08/22 10:39:45;;;;;;;4.70;2.22;;;;;;;25.45;55.40;101968.03;5030723;28;20026;-74
2023/08/22 10:42:13;;;;;;;6.10;2.78;;;;;;;25.45;54.54;101956.41;5030042;28;20037;-75
2023/08/22 10:44:39;;;;;;;6.80;2.60;;;;;;;25.66;54.02;101955.72;5031760;28;20083;-76
2023/08/22 10:47:17;;;;;;;6.18;2.53;;;;;;;26.06;53.86;101955.25;5031468;28;20045;-76
2023/08/22 10:49:43;;;;;;;6.45;2.40;;;;;;;26.34;53.66;101958.09;5031193;28;20105;-76
2023/08/22 10:52:10;;;;;;;7.55;2.70;;;;;;;26.51;53.61;101951.44;5029945;28;20115;-76
2023/08/22 10:55:00;;;;;;;7.10;2.85;;;;;;;26.70;54.64;101955.38;5039791;28;20056;-76
2023/08/22 10:57:31;;;;;;;6.70;2.45;;;;;;;26.63;53.06;101956.34;5050208;28;20067;-76
2023/08/22 10:59:59;;;;;;;7.13;2.22;;;;;;;26.72;48.40;101950.59;5050358;28;20043;-75
2023/08/22 11:02:30;;;;;;;5.95;1.88;;;;;;;26.85;50.91;101955.31;5049567;28;20162;-75
2023/08/22 11:04:56;;;;;;;4.90;1.88;;;;;;;26.94;49.01;101951.44;5049988;28;20032;-75
2023/08/22 11:07:22;;;;;;;4.18;1.80;;;;;;;26.95;47.58;101952.28;5050145;28;20389;-76
2023/08/22 11:09:48;;;;;;;2.38;1.20;;;;;;;26.85;43.89;101949.94;5049330;28;20028;-74
2023/08/22 11:12:26;;;;;;;2.28;1.00;;;;;;;26.80;45.12;101952.34;5050104;28;20028;-75
2023/08/22 11:14:52;;;;;;;4.13;1.00;;;;;;;26.71;47.19;101953.50;5050284;28;20032;-75